Rotonda West, Florida
Current Conditions -  °F | °C
As of 2:35 PM on Thursday 27 Nov 2014 (Local Time) from KVNC Reporting Station
Clear Clear  
Wind Chill: 68°   Ceiling: Unl
Heat Index: 68°   Visibility: 10mi
Dew Point: 54°   Wind: 12mph
Humidity: 60%   Direction: 330°NNW
Pressure: 30.21"   Gusts: 17mph
Location:  26.9°N, 82.28°W
Report Text: KVNC 271935Z AUTO 33010G15KT 10SM CLR 20/12 A3021 RMK AO2 TSNO
Loading
Personal Weather Stations






























Interactive Weather Map New forecast layout! Learn more

10-Day Weather Forecast

Advertisements
Track Severe Weather on mobile